Time;durP1;ratioP1;P1;durP2;ratioP2;P2;SDS_P1;SDS_P2;PMS_P1;PMS_P2;Temp;Humidity;BMP_temperature;BMP_pressure;BME280_temperature;BME280_humidity;BME280_pressure;Samples;Min_cycle;Max_cycle;Signal;HPM_P1;HPM_P2
2022/07/20 07:53:07;;;;;;;7.95;3.42;;;;;;;28.65;53.37;101245.22;10864308;23;1129147;31
2022/07/20 07:58:09;;;;;;;8.13;4.32;;;;;;;28.13;53.35;101161.41;10608634;23;20076;-85
2022/07/20 08:03:09;;;;;;;7.85;3.50;;;;;;;27.61;54.13;101049.38;9953793;29;20110;-86
2022/07/20 08:08:11;;;;;;;9.90;4.00;;;;;;;28.81;51.89;101225.31;9959182;29;20034;-85
2022/07/20 08:13:11;;;;;;;9.52;3.70;;;;;;;28.54;52.70;101170.50;9961097;29;20505;-85
2022/07/20 08:18:12;;;;;;;10.10;3.30;;;;;;;28.78;53.96;101246.72;9949583;29;20037;-85
2022/07/20 08:23:13;;;;;;;6.93;4.10;;;;;;;28.35;52.64;101180.56;9946351;29;20038;-84
2022/07/20 08:28:18;;;;;;;9.95;4.50;;;;;;;28.37;53.06;101151.88;9962247;29;20537;-84
2022/07/20 08:33:18;;;;;;;10.18;4.45;;;;;;;28.34;53.59;101153.44;9954837;29;20132;-84
2022/07/20 08:38:19;;;;;;;10.02;5.25;;;;;;;28.23;52.78;101103.41;9947949;29;20023;-85
2022/07/20 08:43:19;;;;;;;8.32;4.90;;;;;;;28.75;53.27;101182.31;9939949;29;20037;-85
2022/07/20 08:48:20;;;;;;;12.32;5.43;;;;;;;29.12;53.31;101221.56;9925373;29;20102;-86
2022/07/20 08:53:20;;;;;;;10.43;5.00;;;;;;;29.52;52.59;101242.22;9947629;29;20492;-86
2022/07/20 08:58:21;;;;;;;10.27;4.88;;;;;;;29.34;55.07;101253.22;9939552;29;20177;-85
2022/07/20 09:03:22;;;;;;;11.18;5.05;;;;;;;29.85;56.34;101329.63;9952964;29;20034;-86
2022/07/20 09:08:22;;;;;;;13.18;6.57;;;;;;;29.68;56.06;101336.56;9945123;29;20062;-85
2022/07/20 09:13:25;;;;;;;12.20;7.07;;;;;;;29.54;56.77;101291.72;9938553;29;20057;-84
2022/07/20 09:18:27;;;;;;;13.65;8.77;;;;;;;29.95;58.20;101407.66;9937968;29;20058;-84
2022/07/20 09:23:33;;;;;;;13.27;8.63;;;;;;;29.44;60.00;101306.50;9937067;29;20040;-85
2022/07/20 09:28:38;;;;;;;17.88;9.82;;;;;;;29.43;62.05;101319.00;9953336;29;20044;-85
2022/07/20 09:33:39;;;;;;;22.83;11.18;;;;;;;30.17;62.60;101400.41;9939364;29;20092;-85
2022/07/20 09:38:40;;;;;;;17.95;13.00;;;;;;;30.30;63.89;101412.44;9937970;29;20051;-85
2022/07/20 09:43:41;;;;;;;24.17;16.15;;;;;;;30.80;64.79;101470.19;9953689;29;20052;-85
2022/07/20 09:48:49;;;;;;;21.67;15.82;;;;;;;30.12;66.39;101372.31;9953612;29;21487;-84
2022/07/20 09:53:55;;;;;;;25.02;16.95;;;;;;;29.81;67.80;101384.66;9956077;29;20042;-84
2022/07/20 09:58:56;;;;;;;25.37;16.93;;;;;;;30.28;68.52;101452.53;9987200;29;20120;-84
2022/07/20 10:03:58;;;;;;;24.60;17.20;;;;;;;29.94;68.11;101418.22;9977656;29;20040;-85
2022/07/20 10:08:59;;;;;;;27.15;17.17;;;;;;;30.07;67.90;101375.47;9977751;29;20034;-86
2022/07/20 10:14:01;;;;;;;29.50;18.75;;;;;;;30.57;67.26;101447.41;9973582;29;20411;-83
2022/07/20 10:19:03;;;;;;;28.00;18.58;;;;;;;30.95;67.53;101500.53;9977085;29;20060;-85
2022/07/20 10:24:27;;;;;;;27.80;18.98;;;;;;;30.14;67.80;101369.94;9935254;29;20083;-85
2022/07/20 10:29:31;;;;;;;26.75;17.67;;;;;;;30.81;65.67;101425.53;9950769;29;20046;-85
2022/07/20 10:34:42;;;;;;;24.60;16.98;;;;;;;30.33;63.31;101321.63;10003711;29;20413;-84
2022/07/20 10:39:45;;;;;;;25.83;17.38;;;;;;;30.52;63.21;101371.84;9968568;29;20038;-84
2022/07/20 10:44:45;;;;;;;24.77;17.20;;;;;;;31.10;63.55;101480.88;9984471;29;20030;-84
2022/07/20 10:50:02;;;;;;;23.10;16.88;;;;;;;30.68;63.13;101422.06;9942782;29;20113;-84
2022/07/20 10:55:04;;;;;;;27.48;16.75;;;;;;;30.86;61.78;101419.50;9954827;29;20042;-85
2022/07/20 11:00:07;;;;;;;24.27;17.80;;;;;;;30.50;59.22;101416.88;9953990;29;20042;-84
2022/07/20 11:05:19;;;;;;;18.50;15.43;;;;;;;30.95;60.39;101457.06;9956265;29;20034;-86
2022/07/20 11:10:23;;;;;;;18.10;14.00;;;;;;;30.96;56.53;101407.53;9934887;29;20369;-86
2022/07/20 11:15:24;;;;;;;18.23;13.23;;;;;;;30.70;55.02;101357.13;9963216;29;20133;-86
2022/07/20 11:20:25;;;;;;;20.17;14.82;;;;;;;31.31;54.67;101427.16;9959748;29;20030;-86
2022/07/20 11:25:26;;;;;;;16.10;13.70;;;;;;;31.42;55.75;101398.88;9936180;29;20062;-85
2022/07/20 11:30:34;;;;;;;17.60;14.93;;;;;;;32.12;55.06;101459.19;9965627;29;20471;-86
2022/07/20 11:35:34;;;;;;;18.25;13.15;;;;;;;31.97;52.37;101386.97;9972111;29;20042;-85
2022/07/20 11:40:37;;;;;;;24.02;14.02;;;;;;;32.06;51.82;101466.44;9952330;29;20034;-84
2022/07/20 11:45:38;;;;;;;17.77;12.98;;;;;;;31.58;52.79;101396.66;9965894;29;20030;-83
2022/07/20 11:50:38;;;;;;;20.02;12.05;;;;;;;31.49;53.51;101410.38;9952659;29;20030;-85
2022/07/20 11:55:39;;;;;;;18.30;11.73;;;;;;;32.12;52.93;101462.88;9964108;29;20046;-83
2022/07/20 12:00:39;;;;;;;15.65;9.45;;;;;;;32.56;49.90;101447.09;9949998;29;20046;-83
2022/07/20 12:05:40;;;;;;;13.00;8.52;;;;;;;33.21;48.33;101453.38;9959889;29;20034;-84
2022/07/20 12:10:42;;;;;;;11.60;8.70;;;;;;;33.29;48.22;101457.91;9974854;29;20030;-82
2022/07/20 12:16:15;;;;;;;12.85;8.15;;;;;;;33.11;46.40;101384.41;9959190;29;20069;-84
2022/07/20 12:21:20;;;;;;;9.85;8.23;;;;;;;33.33;48.35;101430.22;9974547;29;20030;-83
2022/07/20 12:26:20;;;;;;;;;;;;;;;34.46;47.17;101511.16;9956846;29;20110;-84
2022/07/20 12:31:23;;;;;;;17.58;10.38;;;;;;;33.90;47.47;101444.81;9985848;29;20384;-84
2022/07/20 12:36:30;;;;;;;12.57;9.23;;;;;;;34.47;46.88;101449.09;9968969;29;20056;-85
2022/07/20 12:41:31;;;;;;;11.68;8.73;;;;;;;34.32;47.37;101348.22;9970959;29;20078;-85
2022/07/20 12:46:31;;;;;;;12.40;8.15;;;;;;;34.58;45.05;101418.44;9956756;29;20443;-85
2022/07/20 12:51:32;;;;;;;13.20;8.68;;;;;;;34.43;45.88;101425.38;9972417;29;20278;-84
2022/07/20 12:56:32;;;;;;;10.40;8.30;;;;;;;34.13;45.74;101386.56;9986371;29;20106;-85
2022/07/20 13:01:33;;;;;;;13.73;8.85;;;;;;;34.77;45.15;101465.91;9988954;29;20058;-85
2022/07/20 13:06:33;;;;;;;15.75;9.73;;;;;;;35.81;43.91;101454.34;9971128;29;20041;-85
2022/07/20 13:11:34;;;;;;;11.43;9.00;;;;;;;35.78;44.30;101460.06;9956696;29;20542;-84
2022/07/20 13:16:34;;;;;;;12.63;6.28;;;;;;;35.23;41.13;101398.47;9963337;29;20046;-85
2022/07/20 13:21:35;;;;;;;6.68;6.00;;;;;;;34.57;42.54;101396.81;9969728;29;20034;-86
2022/07/20 13:26:36;;;;;;;9.25;6.35;;;;;;;34.13;42.20;101360.84;9955945;29;20505;-85
2022/07/20 13:31:36;;;;;;;12.60;6.45;;;;;;;34.47;41.16;101383.34;9954539;29;20391;-85
2022/07/20 13:36:37;;;;;;;9.13;6.38;;;;;;;34.96;41.44;101453.22;9954047;29;20102;-86
2022/07/20 13:41:37;;;;;;;9.77;6.47;;;;;;;35.35;40.93;101464.66;9947277;29;20129;-86
2022/07/20 13:46:38;;;;;;;9.77;6.20;;;;;;;35.24;40.73;101400.88;9971584;29;20107;-85
2022/07/20 13:51:38;;;;;;;10.68;6.40;;;;;;;35.57;40.01;101478.91;9957244;29;20069;-86
2022/07/20 13:56:39;;;;;;;8.20;6.18;;;;;;;35.38;40.48;101450.75;9959612;29;20054;-87
2022/07/20 14:01:42;;;;;;;10.70;6.40;;;;;;;35.50;38.65;101390.19;9945135;29;20050;-87
2022/07/20 14:06:44;;;;;;;7.18;6.38;;;;;;;35.70;40.41;101419.16;9972797;29;20065;-87
2022/07/20 14:11:44;;;;;;;10.27;7.03;;;;;;;36.15;39.45;101399.31;9989403;29;20479;-87
2022/07/20 14:16:45;;;;;;;9.30;7.00;;;;;;;36.04;39.32;101450.94;9970074;29;20049;-87
2022/07/20 14:21:45;;;;;;;10.48;7.47;;;;;;;35.88;39.85;101439.97;9988643;29;20046;-84
2022/07/20 14:26:46;;;;;;;13.93;8.00;;;;;;;36.32;41.23;101478.69;9949424;29;20482;-88
2022/07/20 14:31:46;;;;;;;12.70;8.32;;;;;;;36.49;40.25;101433.13;9988850;29;20062;-87
2022/07/20 14:36:50;;;;;;;9.13;8.13;;;;;;;36.39;40.38;101454.06;9958603;29;20550;-89
2022/07/20 14:41:55;;;;;;;9.75;7.13;;;;;;;35.42;42.27;101426.59;9957213;29;20027;-90
2022/07/20 14:46:56;;;;;;;10.40;6.20;;;;;;;35.15;40.74;101421.34;9963379;29;20155;-92
2022/07/20 14:51:56;;;;;;;11.15;6.60;;;;;;;35.00;41.00;101425.44;9957123;29;20316;-88
2022/07/20 14:56:57;;;;;;;7.88;6.03;;;;;;;34.95;41.38;101448.72;9973925;29;20440;-89
2022/07/20 15:01:57;;;;;;;7.28;5.63;;;;;;;35.55;40.50;101453.56;9970262;29;20081;-89
2022/07/20 15:06:58;;;;;;;7.82;5.47;;;;;;;35.71;40.75;101455.19;9960428;29;20040;-88
2022/07/20 15:11:58;;;;;;;8.50;5.78;;;;;;;35.59;39.92;101441.28;9959847;29;20133;-90
2022/07/20 15:16:59;;;;;;;7.60;6.18;;;;;;;35.78;40.39;101432.22;9944894;29;20034;-89
2022/07/20 15:22:02;;;;;;;9.77;4.90;;;;;;;34.63;39.66;101329.41;9950738;29;20040;-89
2022/07/20 15:27:03;;;;;;;10.95;7.22;;;;;;;35.30;40.73;101412.75;9950314;29;20053;-89
2022/07/20 15:32:04;;;;;;;6.38;4.30;;;;;;;34.69;40.14;101342.09;9953115;29;20129;-89
2022/07/20 15:37:06;;;;;;;6.30;4.55;;;;;;;34.79;40.97;101389.06;9962166;29;20034;-90
2022/07/20 15:42:09;;;;;;;7.07;4.65;;;;;;;33.67;42.79;101484.25;9927158;29;20034;-88
2022/07/20 15:47:11;;;;;;;6.75;5.20;;;;;;;33.58;42.46;101418.94;9976400;29;20037;-87
2022/07/20 15:52:12;;;;;;;10.10;5.10;;;;;;;32.11;43.91;101372.94;9978521;29;20073;-88
2022/07/20 15:57:23;;;;;;;6.65;4.43;;;;;;;31.78;44.85;101422.94;9950478;29;20038;-89
2022/07/20 16:02:32;;;;;;;8.77;5.03;;;;;;;31.93;45.65;101532.16;9912255;29;20049;-89
2022/07/20 16:07:32;;;;;;;5.40;3.97;;;;;;;31.09;45.55;101397.59;9911954;29;20101;-88
2022/07/20 16:12:40;;;;;;;9.57;4.22;;;;;;;30.62;46.07;101346.84;9943290;29;20187;-90
2022/07/20 16:17:41;;;;;;;8.10;4.80;;;;;;;31.22;45.80;101378.25;9934082;29;20113;-89
2022/07/20 16:22:42;;;;;;;6.32;4.47;;;;;;;31.68;43.44;101338.25;9948944;29;20038;-88
2022/07/20 16:27:42;;;;;;;5.88;4.18;;;;;;;32.06;45.01;101426.56;9948914;29;20046;-89
2022/07/20 16:32:45;;;;;;;6.22;4.72;;;;;;;31.53;45.11;101342.94;9927262;29;20046;-91
2022/07/20 16:37:46;;;;;;;7.13;4.32;;;;;;;30.84;46.25;101299.69;9893136;29;20651;-90
2022/07/20 16:42:49;;;;;;;8.10;4.25;;;;;;;30.58;47.73;101326.91;9932654;29;21422;-91
2022/07/20 16:47:52;;;;;;;10.98;4.55;;;;;;;30.52;47.71;101363.34;9980175;29;20036;-90
2022/07/20 16:52:52;;;;;;;9.18;4.35;;;;;;;30.00;48.79;101384.66;9934163;29;20030;-90
2022/07/20 16:57:53;;;;;;;7.55;4.90;;;;;;;29.44;50.63;101360.38;9960503;29;20037;-88
2022/07/20 17:02:53;;;;;;;10.38;5.07;;;;;;;29.79;51.47;101478.72;9950782;29;20121;-90
2022/07/20 17:07:54;;;;;;;9.55;5.50;;;;;;;28.59;52.49;101348.66;9911087;29;20178;-89
2022/07/20 17:12:55;;;;;;;10.43;5.13;;;;;;;28.63;54.53;101428.91;9925408;29;20042;-89
2022/07/20 17:17:55;;;;;;;11.07;5.90;;;;;;;29.33;55.07;101546.47;9934725;29;20030;-88
2022/07/20 17:22:56;;;;;;;7.68;5.32;;;;;;;28.71;54.94;101476.06;9938957;29;20026;-87
2022/07/20 17:27:56;;;;;;;8.77;5.05;;;;;;;29.07;56.79;101522.31;9953567;29;20038;-88
2022/07/20 17:32:57;;;;;;;9.20;5.40;;;;;;;28.95;56.31;101562.09;9967509;29;20038;-89
2022/07/20 17:37:57;;;;;;;8.75;5.90;;;;;;;28.17;57.36;101473.69;9937610;29;20057;-88
2022/07/20 17:42:58;;;;;;;9.77;5.38;;;;;;;28.34;58.72;101498.03;9936108;29;20479;-88
2022/07/20 17:47:58;;;;;;;14.38;6.88;;;;;;;27.24;59.00;101364.22;9939051;29;20039;-88
2022/07/20 17:53:00;;;;;;;10.38;6.05;;;;;;;26.98;60.18;101378.75;9928222;29;20403;-89
2022/07/20 17:58:01;;;;;;;16.23;7.28;;;;;;;26.97;63.27;101430.75;9936923;29;20037;-85
2022/07/20 18:03:02;;;;;;;13.15;5.95;;;;;;;26.41;64.18;101411.50;9938322;29;20046;-86
2022/07/20 18:08:03;;;;;;;9.77;5.18;;;;;;;26.68;66.18;101516.53;9943412;29;20039;-87
2022/07/20 18:13:03;;;;;;;10.95;6.25;;;;;;;25.78;68.62;101468.00;9939041;29;20054;-89
2022/07/20 18:18:04;;;;;;;7.30;4.90;;;;;;;25.32;70.26;101447.25;9939218;29;20125;-88
2022/07/20 18:23:04;;;;;;;12.93;5.47;;;;;;;25.36;74.08;101490.50;9939594;29;20208;-88
2022/07/20 18:28:05;;;;;;;13.15;5.40;;;;;;;25.69;76.76;101608.25;9938042;29;20053;-88
2022/07/20 18:33:06;;;;;;;11.07;6.72;;;;;;;24.15;79.58;101413.72;9948078;29;20099;-88
2022/07/20 18:38:06;;;;;;;9.43;6.35;;;;;;;24.59;81.44;101579.72;9952223;29;20034;-86
2022/07/20 18:43:07;;;;;;;13.75;6.22;;;;;;;23.78;81.19;101455.44;9946500;29;20099;-87
2022/07/20 18:48:07;;;;;;;10.77;5.82;;;;;;;23.16;81.68;101417.97;9952500;29;20132;-86
2022/07/20 18:53:08;;;;;;;15.30;5.32;;;;;;;23.04;81.78;101395.28;9943652;29;20110;-87
2022/07/20 18:58:10;;;;;;;8.95;4.95;;;;;;;23.16;83.17;101462.06;9956992;29;20041;-88
2022/07/20 19:03:14;;;;;;;11.00;5.18;;;;;;;23.73;85.04;101554.78;9935553;29;20042;-87
2022/07/20 19:08:14;;;;;;;10.38;5.18;;;;;;;22.40;86.21;101372.41;9930378;29;20094;-85
2022/07/20 19:13:15;;;;;;;8.38;4.85;;;;;;;22.58;87.87;101433.06;9945774;29;20046;-86
2022/07/20 19:18:17;;;;;;;8.88;5.30;;;;;;;23.23;89.30;101569.16;9928205;29;20062;-86
2022/07/20 19:23:19;;;;;;;13.13;5.22;;;;;;;22.45;90.30;101431.16;9929298;29;20076;-86
2022/07/20 19:28:20;;;;;;;11.00;4.78;;;;;;;22.84;91.40;101545.50;9959770;29;20034;-86
2022/07/20 19:33:21;;;;;;;8.32;4.38;;;;;;;23.28;91.82;101633.66;9949982;29;20038;-86
2022/07/20 19:38:23;;;;;;;11.63;4.20;;;;;;;22.81;91.64;101581.78;9913181;29;20623;-86
2022/07/20 19:43:24;;;;;;;9.60;4.40;;;;;;;22.87;92.07;101592.56;9942050;29;20415;-86
2022/07/20 19:48:24;;;;;;;7.10;4.03;;;;;;;22.47;92.77;101501.81;9944531;29;20038;-86
2022/07/20 19:53:31;;;;;;;6.63;3.58;;;;;;;22.24;93.51;101470.16;9938741;29;20045;-86
2022/07/20 19:58:31;;;;;;;8.85;3.00;;;;;;;22.45;94.97;101518.16;9948741;29;20045;-85
2022/07/20 20:03:32;;;;;;;6.18;3.25;;;;;;;22.28;95.53;101488.84;9944650;29;20049;-86
2022/07/20 20:08:34;;;;;;;9.13;3.30;;;;;;;22.02;97.08;101493.41;9952347;29;20113;-87
2022/07/20 20:13:39;;;;;;;10.75;2.85;;;;;;;21.36;98.08;101362.06;9913278;29;20511;-86
2022/07/20 20:18:40;;;;;;;7.53;2.97;;;;;;;22.66;98.58;101560.56;9956000;29;20077;-86
2022/07/20 20:23:41;;;;;;;9.45;3.28;;;;;;;21.62;99.32;101423.13;9948158;29;20099;-85
2022/07/20 20:28:42;;;;;;;7.63;3.25;;;;;;;21.61;99.77;101446.69;9972643;29;20502;-85
2022/07/20 20:33:42;;;;;;;8.48;3.05;;;;;;;21.52;100.00;101425.03;9956184;29;20046;-84
2022/07/20 20:38:43;;;;;;;12.73;3.75;;;;;;;22.45;100.00;101600.38;9953332;29;20119;-85
2022/07/20 20:43:43;;;;;;;8.23;3.55;;;;;;;22.37;100.00;101592.69;9950300;29;20034;-85
2022/07/20 20:48:44;;;;;;;7.78;3.10;;;;;;;22.46;100.00;101584.34;9955481;29;20095;-86
2022/07/20 20:53:45;;;;;;;8.75;2.53;;;;;;;21.51;100.00;101451.38;9954772;29;20444;-87
2022/07/20 20:58:45;;;;;;;7.40;3.30;;;;;;;22.42;100.00;101595.38;9941878;29;20034;-87
2022/07/20 21:03:46;;;;;;;8.77;3.50;;;;;;;20.90;100.00;101391.09;9961689;29;20391;-89
2022/07/20 21:08:47;;;;;;;11.52;3.05;;;;;;;21.72;100.00;101549.00;9980960;29;20056;-86
2022/07/20 21:13:48;;;;;;;7.75;3.17;;;;;;;21.28;100.00;101500.84;9967035;29;20505;-86
2022/07/20 21:18:48;;;;;;;14.23;4.07;;;;;;;21.53;100.00;101589.16;9996890;29;20048;-87
2022/07/20 21:23:49;;;;;;;6.68;3.55;;;;;;;21.12;100.00;101547.94;9993896;29;21301;-86
2022/07/20 21:28:52;;;;;;;7.63;3.50;;;;;;;20.95;100.00;101564.50;9964201;29;20072;-87
2022/07/20 21:33:53;;;;;;;6.80;3.67;;;;;;;21.11;100.00;101579.06;9971495;29;20067;-86
2022/07/20 21:38:56;;;;;;;6.13;3.10;;;;;;;20.05;100.00;101465.88;9977183;29;20094;-87
2022/07/20 21:43:56;;;;;;;8.35;3.05;;;;;;;20.84;100.00;101593.81;9979089;29;20036;-88
2022/07/20 21:48:57;;;;;;;6.65;2.60;;;;;;;21.00;100.00;101603.63;9961890;29;20559;-86
2022/07/20 21:53:57;;;;;;;7.03;3.03;;;;;;;20.85;100.00;101592.69;9994984;29;20078;-85
2022/07/20 21:58:59;;;;;;;5.97;3.65;;;;;;;20.60;100.00;101540.78;9962131;29;20069;-85
2022/07/20 22:03:59;;;;;;;11.32;4.22;;;;;;;21.32;100.00;101657.91;9989502;29;20046;-85
2022/07/20 22:09:00;;;;;;;8.05;4.00;;;;;;;21.08;100.00;101624.44;9978934;29;20034;-88
2022/07/20 22:14:00;;;;;;;9.50;3.85;;;;;;;20.48;100.00;101513.25;9979936;29;20061;-86
2022/07/20 22:19:01;;;;;;;7.40;3.28;;;;;;;20.85;100.00;101554.31;9972859;29;20195;-88
2022/07/20 22:24:03;;;;;;;9.75;4.47;;;;;;;20.68;100.00;101503.72;9965063;29;20534;-87
2022/07/20 22:29:06;;;;;;;9.95;3.45;;;;;;;20.10;100.00;101421.91;9965285;29;20170;-87
2022/07/20 22:34:07;;;;;;;9.32;3.70;;;;;;;19.95;100.00;101428.59;9963230;29;20623;-87
2022/07/20 22:39:07;;;;;;;7.95;3.45;;;;;;;20.63;100.00;101541.00;9964566;29;20153;-87
2022/07/20 22:44:08;;;;;;;8.10;3.95;;;;;;;20.36;100.00;101536.09;9964794;29;20034;-87
2022/07/20 22:49:09;;;;;;;9.45;3.47;;;;;;;20.41;100.00;101560.38;9955355;29;20045;-87
2022/07/20 22:54:11;;;;;;;8.25;3.08;;;;;;;20.51;100.00;101610.56;9980001;29;20129;-87
2022/07/20 22:59:12;;;;;;;9.50;3.47;;;;;;;20.16;100.00;101526.09;9963705;29;20030;-87
2022/07/20 23:04:12;;;;;;;10.80;3.97;;;;;;;21.01;100.00;101680.84;9979195;29;20470;-87
2022/07/20 23:09:13;;;;;;;9.23;3.35;;;;;;;21.14;100.00;101702.44;9986463;29;20089;-86
2022/07/20 23:14:13;;;;;;;8.63;3.58;;;;;;;20.34;100.00;101561.59;9992305;29;20050;-87
2022/07/20 23:19:14;;;;;;;5.18;3.28;;;;;;;20.01;100.00;101520.72;9980141;29;20030;-87
2022/07/20 23:24:14;;;;;;;8.27;3.70;;;;;;;20.54;100.00;101593.16;9980017;29;20033;-86
2022/07/20 23:29:16;;;;;;;7.97;3.65;;;;;;;20.13;100.00;101551.84;9967618;29;20037;-86
2022/07/20 23:34:17;;;;;;;9.65;3.40;;;;;;;20.41;100.00;101610.72;9959549;29;20507;-86
2022/07/20 23:39:17;;;;;;;7.25;3.40;;;;;;;20.29;100.00;101600.81;9976665;29;20027;-87
2022/07/20 23:44:18;;;;;;;8.95;3.67;;;;;;;20.52;100.00;101607.44;9994267;29;20037;-86
2022/07/20 23:49:20;;;;;;;8.57;4.68;;;;;;;20.33;100.00;101581.47;9974839;29;22227;-86
2022/07/20 23:54:21;;;;;;;8.93;4.57;;;;;;;20.00;100.00;101519.06;9978169;29;20046;-87
2022/07/20 23:59:22;;;;;;;9.85;4.50;;;;;;;20.27;100.00;101597.47;9982667;29;20090;-87
